sensor_id;sensor_type;location;lat;lon;timestamp;P1;durP1;ratioP1;P2;durP2;ratioP2
42066;SDS011;27734;47.028;28.820;2022-11-10T00:01:40;26.80;;;12.23;;
42066;SDS011;27734;47.028;28.820;2022-11-10T00:04:30;25.20;;;12.43;;
42066;SDS011;27734;47.028;28.820;2022-11-10T00:07:21;27.13;;;12.23;;
42066;SDS011;27734;47.028;28.820;2022-11-10T00:10:13;24.87;;;12.37;;
42066;SDS011;27734;47.028;28.820;2022-11-10T00:13:03;25.90;;;11.97;;
42066;SDS011;27734;47.028;28.820;2022-11-10T00:15:53;25.80;;;13.13;;
42066;SDS011;27734;47.028;28.820;2022-11-10T00:19:02;26.00;;;12.73;;
42066;SDS011;27734;47.028;28.820;2022-11-10T00:21:52;25.00;;;11.53;;
42066;SDS011;27734;47.028;28.820;2022-11-10T00:24:42;26.43;;;12.23;;
42066;SDS011;27734;47.028;28.820;2022-11-10T00:27:33;23.10;;;11.37;;
42066;SDS011;27734;47.028;28.820;2022-11-10T00:30:23;22.27;;;11.17;;
42066;SDS011;27734;47.028;28.820;2022-11-10T00:33:13;25.50;;;11.80;;
42066;SDS011;27734;47.028;28.820;2022-11-10T00:36:03;26.45;;;12.25;;
42066;SDS011;27734;47.028;28.820;2022-11-10T00:38:53;23.40;;;11.43;;
42066;SDS011;27734;47.028;28.820;2022-11-10T00:41:43;21.77;;;10.80;;
42066;SDS011;27734;47.028;28.820;2022-11-10T00:44:37;23.97;;;11.50;;
42066;SDS011;27734;47.028;28.820;2022-11-10T00:47:27;22.43;;;10.67;;
42066;SDS011;27734;47.028;28.820;2022-11-10T00:50:17;23.87;;;10.87;;
42066;SDS011;27734;47.028;28.820;2022-11-10T00:53:07;25.57;;;11.10;;
42066;SDS011;27734;47.028;28.820;2022-11-10T00:55:56;23.30;;;11.90;;
42066;SDS011;27734;47.028;28.820;2022-11-10T00:58:46;24.63;;;11.67;;
42066;SDS011;27734;47.028;28.820;2022-11-10T01:01:36;27.30;;;10.80;;
42066;SDS011;27734;47.028;28.820;2022-11-10T01:04:26;22.50;;;11.07;;
42066;SDS011;27734;47.028;28.820;2022-11-10T01:07:16;24.77;;;11.37;;
42066;SDS011;27734;47.028;28.820;2022-11-10T01:10:06;23.63;;;11.10;;
42066;SDS011;27734;47.028;28.820;2022-11-10T01:12:56;26.17;;;12.20;;
42066;SDS011;27734;47.028;28.820;2022-11-10T01:16:05;25.93;;;12.90;;
42066;SDS011;27734;47.028;28.820;2022-11-10T01:18:58;24.37;;;11.07;;
42066;SDS011;27734;47.028;28.820;2022-11-10T01:21:50;21.87;;;10.57;;
42066;SDS011;27734;47.028;28.820;2022-11-10T01:24:40;24.30;;;11.67;;
42066;SDS011;27734;47.028;28.820;2022-11-10T01:27:29;23.13;;;11.80;;
42066;SDS011;27734;47.028;28.820;2022-11-10T01:30:19;24.03;;;11.20;;
42066;SDS011;27734;47.028;28.820;2022-11-10T01:33:09;26.50;;;12.50;;
42066;SDS011;27734;47.028;28.820;2022-11-10T01:35:59;22.13;;;11.17;;
42066;SDS011;27734;47.028;28.820;2022-11-10T01:38:49;23.30;;;11.25;;
42066;SDS011;27734;47.028;28.820;2022-11-10T01:41:39;23.97;;;11.13;;
42066;SDS011;27734;47.028;28.820;2022-11-10T01:44:28;22.47;;;10.77;;
42066;SDS011;27734;47.028;28.820;2022-11-10T01:47:18;24.37;;;11.13;;
42066;SDS011;27734;47.028;28.820;2022-11-10T01:50:08;22.67;;;11.47;;
42066;SDS011;27734;47.028;28.820;2022-11-10T01:52:59;24.17;;;11.70;;
42066;SDS011;27734;47.028;28.820;2022-11-10T01:55:50;27.55;;;11.95;;
42066;SDS011;27734;47.028;28.820;2022-11-10T01:58:41;24.57;;;12.47;;
42066;SDS011;27734;47.028;28.820;2022-11-10T02:01:36;24.40;;;11.87;;
42066;SDS011;27734;47.028;28.820;2022-11-10T02:04:25;24.70;;;12.17;;
42066;SDS011;27734;47.028;28.820;2022-11-10T02:07:18;25.57;;;13.27;;
42066;SDS011;27734;47.028;28.820;2022-11-10T02:10:13;27.17;;;13.90;;
42066;SDS011;27734;47.028;28.820;2022-11-10T02:13:04;25.13;;;12.57;;
42066;SDS011;27734;47.028;28.820;2022-11-10T02:15:54;25.43;;;12.43;;
42066;SDS011;27734;47.028;28.820;2022-11-10T02:18:44;29.23;;;13.20;;
42066;SDS011;27734;47.028;28.820;2022-11-10T02:21:34;23.63;;;12.57;;
42066;SDS011;27734;47.028;28.820;2022-11-10T02:24:24;23.57;;;12.27;;
42066;SDS011;27734;47.028;28.820;2022-11-10T02:27:14;29.60;;;14.47;;
42066;SDS011;27734;47.028;28.820;2022-11-10T02:30:05;24.97;;;12.73;;
42066;SDS011;27734;47.028;28.820;2022-11-10T02:32:56;26.10;;;12.60;;
42066;SDS011;27734;47.028;28.820;2022-11-10T02:35:46;24.03;;;12.37;;
42066;SDS011;27734;47.028;28.820;2022-11-10T02:38:37;28.27;;;13.67;;
42066;SDS011;27734;47.028;28.820;2022-11-10T02:41:27;26.83;;;13.33;;
42066;SDS011;27734;47.028;28.820;2022-11-10T02:44:16;28.97;;;13.80;;
42066;SDS011;27734;47.028;28.820;2022-11-10T02:47:06;28.73;;;13.77;;
42066;SDS011;27734;47.028;28.820;2022-11-10T02:49:56;26.77;;;13.13;;
42066;SDS011;27734;47.028;28.820;2022-11-10T02:52:46;27.50;;;14.03;;
42066;SDS011;27734;47.028;28.820;2022-11-10T02:55:37;29.57;;;14.23;;
42066;SDS011;27734;47.028;28.820;2022-11-10T02:58:26;27.10;;;13.50;;
42066;SDS011;27734;47.028;28.820;2022-11-10T03:01:16;30.87;;;14.07;;
42066;SDS011;27734;47.028;28.820;2022-11-10T03:04:06;30.27;;;14.70;;
42066;SDS011;27734;47.028;28.820;2022-11-10T03:06:56;32.93;;;14.93;;
42066;SDS011;27734;47.028;28.820;2022-11-10T03:09:46;31.63;;;15.10;;
42066;SDS011;27734;47.028;28.820;2022-11-10T03:12:35;28.53;;;13.97;;
42066;SDS011;27734;47.028;28.820;2022-11-10T03:15:29;29.17;;;14.77;;
42066;SDS011;27734;47.028;28.820;2022-11-10T03:18:19;32.80;;;16.30;;
42066;SDS011;27734;47.028;28.820;2022-11-10T03:21:09;31.53;;;15.60;;
42066;SDS011;27734;47.028;28.820;2022-11-10T03:23:58;37.03;;;17.03;;
42066;SDS011;27734;47.028;28.820;2022-11-10T03:26:48;35.23;;;16.73;;
42066;SDS011;27734;47.028;28.820;2022-11-10T03:29:38;34.90;;;16.83;;
42066;SDS011;27734;47.028;28.820;2022-11-10T03:32:27;40.63;;;18.33;;
42066;SDS011;27734;47.028;28.820;2022-11-10T03:35:17;37.13;;;16.47;;
42066;SDS011;27734;47.028;28.820;2022-11-10T03:38:07;36.60;;;17.63;;
42066;SDS011;27734;47.028;28.820;2022-11-10T03:40:56;39.07;;;18.90;;
42066;SDS011;27734;47.028;28.820;2022-11-10T03:43:46;40.70;;;18.03;;
42066;SDS011;27734;47.028;28.820;2022-11-10T03:46:36;41.87;;;18.07;;
42066;SDS011;27734;47.028;28.820;2022-11-10T03:49:26;39.90;;;18.60;;
42066;SDS011;27734;47.028;28.820;2022-11-10T03:52:16;45.27;;;18.97;;
42066;SDS011;27734;47.028;28.820;2022-11-10T03:55:07;44.53;;;19.80;;
42066;SDS011;27734;47.028;28.820;2022-11-10T03:58:01;46.33;;;21.00;;
42066;SDS011;27734;47.028;28.820;2022-11-10T04:00:52;40.60;;;19.53;;
42066;SDS011;27734;47.028;28.820;2022-11-10T04:03:43;45.07;;;20.43;;
42066;SDS011;27734;47.028;28.820;2022-11-10T04:06:32;40.50;;;17.93;;
42066;SDS011;27734;47.028;28.820;2022-11-10T04:09:40;43.40;;;18.63;;
42066;SDS011;27734;47.028;28.820;2022-11-10T04:12:30;41.43;;;18.57;;
42066;SDS011;27734;47.028;28.820;2022-11-10T04:15:38;46.20;;;17.97;;
42066;SDS011;27734;47.028;28.820;2022-11-10T04:18:31;46.83;;;19.77;;
42066;SDS011;27734;47.028;28.820;2022-11-10T04:21:21;41.57;;;19.27;;
42066;SDS011;27734;47.028;28.820;2022-11-10T04:24:11;42.83;;;18.97;;
42066;SDS011;27734;47.028;28.820;2022-11-10T04:27:00;44.97;;;18.10;;
42066;SDS011;27734;47.028;28.820;2022-11-10T04:29:50;45.10;;;18.27;;
42066;SDS011;27734;47.028;28.820;2022-11-10T04:32:40;44.10;;;16.35;;
42066;SDS011;27734;47.028;28.820;2022-11-10T04:35:30;43.87;;;18.90;;
42066;SDS011;27734;47.028;28.820;2022-11-10T04:38:19;48.13;;;18.70;;
42066;SDS011;27734;47.028;28.820;2022-11-10T04:41:09;42.27;;;17.97;;
42066;SDS011;27734;47.028;28.820;2022-11-10T04:43:59;46.13;;;19.17;;
42066;SDS011;27734;47.028;28.820;2022-11-10T04:46:49;51.20;;;17.60;;
42066;SDS011;27734;47.028;28.820;2022-11-10T04:49:39;44.20;;;18.30;;
42066;SDS011;27734;47.028;28.820;2022-11-10T04:52:29;47.73;;;17.97;;
42066;SDS011;27734;47.028;28.820;2022-11-10T04:55:18;42.07;;;17.07;;
42066;SDS011;27734;47.028;28.820;2022-11-10T04:58:08;46.10;;;17.87;;
42066;SDS011;27734;47.028;28.820;2022-11-10T05:01:02;41.70;;;18.05;;
42066;SDS011;27734;47.028;28.820;2022-11-10T05:03:51;42.63;;;16.73;;
42066;SDS011;27734;47.028;28.820;2022-11-10T05:06:41;45.50;;;18.87;;
42066;SDS011;27734;47.028;28.820;2022-11-10T05:09:31;38.07;;;17.30;;
42066;SDS011;27734;47.028;28.820;2022-11-10T05:12:20;41.97;;;18.80;;
42066;SDS011;27734;47.028;28.820;2022-11-10T05:15:11;43.00;;;18.73;;
42066;SDS011;27734;47.028;28.820;2022-11-10T05:18:00;40.80;;;18.00;;
42066;SDS011;27734;47.028;28.820;2022-11-10T05:20:50;37.03;;;17.57;;
42066;SDS011;27734;47.028;28.820;2022-11-10T05:23:40;42.13;;;17.33;;
42066;SDS011;27734;47.028;28.820;2022-11-10T05:26:29;37.40;;;16.97;;
42066;SDS011;27734;47.028;28.820;2022-11-10T05:29:19;39.80;;;17.93;;
42066;SDS011;27734;47.028;28.820;2022-11-10T05:32:11;42.57;;;17.53;;
42066;SDS011;27734;47.028;28.820;2022-11-10T05:35:01;37.80;;;17.83;;
42066;SDS011;27734;47.028;28.820;2022-11-10T05:37:51;41.40;;;18.97;;
42066;SDS011;27734;47.028;28.820;2022-11-10T05:40:41;42.67;;;18.23;;
42066;SDS011;27734;47.028;28.820;2022-11-10T05:43:31;37.83;;;17.57;;
42066;SDS011;27734;47.028;28.820;2022-11-10T05:46:20;38.03;;;17.60;;
42066;SDS011;27734;47.028;28.820;2022-11-10T05:49:11;39.90;;;17.57;;
42066;SDS011;27734;47.028;28.820;2022-11-10T05:52:01;38.47;;;17.60;;
42066;SDS011;27734;47.028;28.820;2022-11-10T05:54:51;41.30;;;18.37;;
42066;SDS011;27734;47.028;28.820;2022-11-10T05:57:42;40.57;;;16.80;;
42066;SDS011;27734;47.028;28.820;2022-11-10T06:00:33;37.57;;;16.50;;
42066;SDS011;27734;47.028;28.820;2022-11-10T06:03:22;37.97;;;16.43;;
42066;SDS011;27734;47.028;28.820;2022-11-10T06:06:12;36.93;;;17.30;;
42066;SDS011;27734;47.028;28.820;2022-11-10T06:09:02;38.87;;;17.90;;
42066;SDS011;27734;47.028;28.820;2022-11-10T06:11:51;33.53;;;16.83;;
42066;SDS011;27734;47.028;28.820;2022-11-10T06:14:41;34.33;;;16.17;;
42066;SDS011;27734;47.028;28.820;2022-11-10T06:17:33;36.97;;;17.17;;
42066;SDS011;27734;47.028;28.820;2022-11-10T06:20:25;34.37;;;16.03;;
42066;SDS011;27734;47.028;28.820;2022-11-10T06:23:15;33.33;;;16.50;;
42066;SDS011;27734;47.028;28.820;2022-11-10T06:26:05;34.37;;;16.43;;
42066;SDS011;27734;47.028;28.820;2022-11-10T06:28:55;34.43;;;16.10;;
42066;SDS011;27734;47.028;28.820;2022-11-10T06:31:45;35.73;;;16.27;;
42066;SDS011;27734;47.028;28.820;2022-11-10T06:34:35;34.00;;;16.23;;
42066;SDS011;27734;47.028;28.820;2022-11-10T06:37:27;34.83;;;16.60;;
42066;SDS011;27734;47.028;28.820;2022-11-10T06:40:21;32.07;;;15.90;;
42066;SDS011;27734;47.028;28.820;2022-11-10T06:43:13;32.03;;;15.53;;
42066;SDS011;27734;47.028;28.820;2022-11-10T06:46:03;30.97;;;14.97;;
42066;SDS011;27734;47.028;28.820;2022-11-10T06:48:53;31.83;;;15.30;;
42066;SDS011;27734;47.028;28.820;2022-11-10T06:51:43;31.10;;;14.75;;
42066;SDS011;27734;47.028;28.820;2022-11-10T06:54:34;30.50;;;14.80;;
42066;SDS011;27734;47.028;28.820;2022-11-10T06:57:23;29.93;;;15.27;;
42066;SDS011;27734;47.028;28.820;2022-11-10T07:00:15;28.37;;;14.53;;
42066;SDS011;27734;47.028;28.820;2022-11-10T07:03:06;28.27;;;14.37;;
42066;SDS011;27734;47.028;28.820;2022-11-10T07:10:37;28.33;;;14.37;;
42066;SDS011;27734;47.028;28.820;2022-11-10T07:13:29;32.33;;;15.10;;
42066;SDS011;27734;47.028;28.820;2022-11-10T07:20:01;28.53;;;14.57;;
42066;SDS011;27734;47.028;28.820;2022-11-10T07:22:51;25.80;;;13.93;;
42066;SDS011;27734;47.028;28.820;2022-11-10T07:25:49;27.60;;;13.33;;
42066;SDS011;27734;47.028;28.820;2022-11-10T07:28:39;27.07;;;13.77;;
42066;SDS011;27734;47.028;28.820;2022-11-10T07:31:29;26.43;;;13.60;;
42066;SDS011;27734;47.028;28.820;2022-11-10T07:34:22;26.10;;;12.93;;
42066;SDS011;27734;47.028;28.820;2022-11-10T07:41:13;25.27;;;12.30;;
42066;SDS011;27734;47.028;28.820;2022-11-10T07:44:03;26.13;;;13.30;;
42066;SDS011;27734;47.028;28.820;2022-11-10T07:46:56;26.33;;;12.93;;
42066;SDS011;27734;47.028;28.820;2022-11-10T07:49:52;26.52;;;12.47;;
42066;SDS011;27734;47.028;28.820;2022-11-10T07:52:47;25.67;;;12.30;;
42066;SDS011;27734;47.028;28.820;2022-11-10T07:55:58;26.90;;;13.00;;
42066;SDS011;27734;47.028;28.820;2022-11-10T08:06:06;26.33;;;13.00;;
42066;SDS011;27734;47.028;28.820;2022-11-10T08:09:04;27.77;;;13.07;;
42066;SDS011;27734;47.028;28.820;2022-11-10T08:11:58;26.00;;;13.17;;
42066;SDS011;27734;47.028;28.820;2022-11-10T08:14:51;28.30;;;13.80;;
42066;SDS011;27734;47.028;28.820;2022-11-10T08:17:45;28.07;;;12.20;;
42066;SDS011;27734;47.028;28.820;2022-11-10T08:20:37;24.73;;;11.10;;
42066;SDS011;27734;47.028;28.820;2022-11-10T08:23:28;23.87;;;9.93;;
42066;SDS011;27734;47.028;28.820;2022-11-10T08:26:18;18.07;;;8.87;;
42066;SDS011;27734;47.028;28.820;2022-11-10T08:29:08;19.90;;;9.80;;
42066;SDS011;27734;47.028;28.820;2022-11-10T08:31:59;19.37;;;9.50;;
42066;SDS011;27734;47.028;28.820;2022-11-10T08:34:56;19.70;;;9.45;;
42066;SDS011;27734;47.028;28.820;2022-11-10T08:38:06;18.33;;;8.70;;
42066;SDS011;27734;47.028;28.820;2022-11-10T08:41:14;19.43;;;8.83;;
42066;SDS011;27734;47.028;28.820;2022-11-10T08:44:07;20.43;;;9.67;;
42066;SDS011;27734;47.028;28.820;2022-11-10T08:47:05;18.60;;;9.13;;
42066;SDS011;27734;47.028;28.820;2022-11-10T08:49:57;21.23;;;9.83;;
42066;SDS011;27734;47.028;28.820;2022-11-10T08:52:49;19.07;;;8.83;;
42066;SDS011;27734;47.028;28.820;2022-11-10T08:55:41;17.33;;;8.50;;
42066;SDS011;27734;47.028;28.820;2022-11-10T08:58:32;17.60;;;8.80;;
42066;SDS011;27734;47.028;28.820;2022-11-10T09:01:24;18.27;;;8.50;;
42066;SDS011;27734;47.028;28.820;2022-11-10T09:04:19;17.83;;;8.23;;
42066;SDS011;27734;47.028;28.820;2022-11-10T09:07:12;20.15;;;8.75;;
42066;SDS011;27734;47.028;28.820;2022-11-10T09:10:03;19.07;;;8.83;;
42066;SDS011;27734;47.028;28.820;2022-11-10T09:13:00;17.25;;;7.70;;
42066;SDS011;27734;47.028;28.820;2022-11-10T09:15:54;21.27;;;8.57;;
42066;SDS011;27734;47.028;28.820;2022-11-10T09:18:47;17.83;;;8.47;;
42066;SDS011;27734;47.028;28.820;2022-11-10T09:21:41;17.32;;;7.58;;
42066;SDS011;27734;47.028;28.820;2022-11-10T09:24:31;17.43;;;7.90;;
42066;SDS011;27734;47.028;28.820;2022-11-10T09:27:21;18.13;;;8.03;;
42066;SDS011;27734;47.028;28.820;2022-11-10T09:30:12;16.07;;;7.60;;
42066;SDS011;27734;47.028;28.820;2022-11-10T09:33:04;15.03;;;7.53;;
42066;SDS011;27734;47.028;28.820;2022-11-10T09:35:59;16.67;;;8.13;;
42066;SDS011;27734;47.028;28.820;2022-11-10T09:38:53;14.33;;;7.03;;
42066;SDS011;27734;47.028;28.820;2022-11-10T09:41:47;15.77;;;7.57;;
42066;SDS011;27734;47.028;28.820;2022-11-10T09:44:37;16.87;;;7.75;;
42066;SDS011;27734;47.028;28.820;2022-11-10T09:47:35;16.30;;;7.97;;
42066;SDS011;27734;47.028;28.820;2022-11-10T09:50:32;15.23;;;7.63;;
42066;SDS011;27734;47.028;28.820;2022-11-10T09:53:28;16.60;;;7.20;;
42066;SDS011;27734;47.028;28.820;2022-11-10T09:56:29;15.00;;;7.17;;
42066;SDS011;27734;47.028;28.820;2022-11-10T09:59:23;18.17;;;7.40;;
42066;SDS011;27734;47.028;28.820;2022-11-10T10:02:19;13.10;;;6.70;;
42066;SDS011;27734;47.028;28.820;2022-11-10T10:08:35;15.90;;;6.83;;
42066;SDS011;27734;47.028;28.820;2022-11-10T10:11:38;12.53;;;6.57;;
42066;SDS011;27734;47.028;28.820;2022-11-10T10:14:45;13.13;;;6.07;;
42066;SDS011;27734;47.028;28.820;2022-11-10T10:17:56;12.33;;;6.33;;
42066;SDS011;27734;47.028;28.820;2022-11-10T10:21:10;13.93;;;6.27;;
42066;SDS011;27734;47.028;28.820;2022-11-10T10:24:21;13.18;;;6.03;;
42066;SDS011;27734;47.028;28.820;2022-11-10T10:27:21;11.57;;;6.13;;
42066;SDS011;27734;47.028;28.820;2022-11-10T10:30:25;12.00;;;6.05;;
42066;SDS011;27734;47.028;28.820;2022-11-10T10:33:18;13.77;;;7.03;;
42066;SDS011;27734;47.028;28.820;2022-11-10T10:36:16;13.50;;;6.53;;
42066;SDS011;27734;47.028;28.820;2022-11-10T10:39:20;12.70;;;6.00;;
42066;SDS011;27734;47.028;28.820;2022-11-10T10:42:18;20.67;;;6.83;;
42066;SDS011;27734;47.028;28.820;2022-11-10T10:45:19;14.23;;;6.67;;
42066;SDS011;27734;47.028;28.820;2022-11-10T10:48:26;12.30;;;6.00;;
42066;SDS011;27734;47.028;28.820;2022-11-10T10:51:28;10.93;;;5.77;;
42066;SDS011;27734;47.028;28.820;2022-11-10T10:54:23;13.47;;;6.27;;
42066;SDS011;27734;47.028;28.820;2022-11-10T10:57:22;15.25;;;6.75;;
42066;SDS011;27734;47.028;28.820;2022-11-10T11:03:20;12.93;;;6.40;;
42066;SDS011;27734;47.028;28.820;2022-11-10T11:06:19;12.60;;;6.37;;
42066;SDS011;27734;47.028;28.820;2022-11-10T11:09:15;13.43;;;6.90;;
42066;SDS011;27734;47.028;28.820;2022-11-10T11:12:08;12.87;;;6.30;;
42066;SDS011;27734;47.028;28.820;2022-11-10T11:15:18;14.77;;;6.43;;
42066;SDS011;27734;47.028;28.820;2022-11-10T11:18:15;14.58;;;6.55;;
42066;SDS011;27734;47.028;28.820;2022-11-10T11:21:12;12.90;;;6.30;;
42066;SDS011;27734;47.028;28.820;2022-11-10T11:24:21;13.93;;;6.60;;
42066;SDS011;27734;47.028;28.820;2022-11-10T11:27:22;15.03;;;6.97;;
42066;SDS011;27734;47.028;28.820;2022-11-10T11:30:22;15.27;;;7.37;;
42066;SDS011;27734;47.028;28.820;2022-11-10T11:33:18;16.80;;;7.17;;
42066;SDS011;27734;47.028;28.820;2022-11-10T11:36:24;14.50;;;6.50;;
42066;SDS011;27734;47.028;28.820;2022-11-10T11:39:28;14.83;;;6.67;;
42066;SDS011;27734;47.028;28.820;2022-11-10T11:42:34;13.00;;;6.53;;
42066;SDS011;27734;47.028;28.820;2022-11-10T11:45:40;15.47;;;6.80;;
42066;SDS011;27734;47.028;28.820;2022-11-10T11:58:43;14.53;;;6.83;;
42066;SDS011;27734;47.028;28.820;2022-11-10T12:01:49;14.80;;;6.87;;
42066;SDS011;27734;47.028;28.820;2022-11-10T12:05:14;14.70;;;7.00;;
42066;SDS011;27734;47.028;28.820;2022-11-10T12:08:17;15.37;;;6.70;;
42066;SDS011;27734;47.028;28.820;2022-11-10T12:14:46;13.83;;;6.67;;
42066;SDS011;27734;47.028;28.820;2022-11-10T12:17:48;13.00;;;6.23;;
42066;SDS011;27734;47.028;28.820;2022-11-10T12:20:57;14.50;;;6.27;;
42066;SDS011;27734;47.028;28.820;2022-11-10T12:24:04;15.57;;;7.10;;
42066;SDS011;27734;47.028;28.820;2022-11-10T12:27:32;13.93;;;6.80;;
42066;SDS011;27734;47.028;28.820;2022-11-10T12:30:29;12.07;;;6.40;;
42066;SDS011;27734;47.028;28.820;2022-11-10T12:33:28;14.93;;;6.37;;
42066;SDS011;27734;47.028;28.820;2022-11-10T12:36:26;18.43;;;6.87;;
42066;SDS011;27734;47.028;28.820;2022-11-10T12:39:19;13.20;;;6.70;;
42066;SDS011;27734;47.028;28.820;2022-11-10T12:42:13;14.87;;;6.33;;
42066;SDS011;27734;47.028;28.820;2022-11-10T12:45:14;13.70;;;6.03;;
42066;SDS011;27734;47.028;28.820;2022-11-10T12:51:53;15.87;;;6.33;;
42066;SDS011;27734;47.028;28.820;2022-11-10T12:54:49;18.03;;;6.40;;
42066;SDS011;27734;47.028;28.820;2022-11-10T13:11:33;15.30;;;6.30;;
42066;SDS011;27734;47.028;28.820;2022-11-10T13:22:07;14.30;;;6.33;;
42066;SDS011;27734;47.028;28.820;2022-11-10T13:31:54;16.60;;;6.70;;
42066;SDS011;27734;47.028;28.820;2022-11-10T13:34:46;13.60;;;7.00;;
42066;SDS011;27734;47.028;28.820;2022-11-10T13:37:48;18.43;;;7.63;;
42066;SDS011;27734;47.028;28.820;2022-11-10T13:48:19;14.47;;;6.80;;
42066;SDS011;27734;47.028;28.820;2022-11-10T14:16:55;21.00;;;8.73;;
42066;SDS011;27734;47.028;28.820;2022-11-10T14:20:16;21.20;;;8.00;;
42066;SDS011;27734;47.028;28.820;2022-11-10T14:23:57;19.97;;;8.13;;
42066;SDS011;27734;47.028;28.820;2022-11-10T14:30:51;16.77;;;8.07;;
42066;SDS011;27734;47.028;28.820;2022-11-10T14:33:43;17.57;;;8.20;;
42066;SDS011;27734;47.028;28.820;2022-11-10T14:36:52;22.03;;;9.07;;
42066;SDS011;27734;47.028;28.820;2022-11-10T14:39:44;20.40;;;8.90;;
42066;SDS011;27734;47.028;28.820;2022-11-10T14:46:25;19.37;;;9.17;;
42066;SDS011;27734;47.028;28.820;2022-11-10T14:49:21;23.75;;;9.25;;
42066;SDS011;27734;47.028;28.820;2022-11-10T14:52:13;28.57;;;10.67;;
42066;SDS011;27734;47.028;28.820;2022-11-10T14:55:06;25.73;;;9.40;;
42066;SDS011;27734;47.028;28.820;2022-11-10T14:58:02;22.20;;;9.50;;
42066;SDS011;27734;47.028;28.820;2022-11-10T15:00:59;22.60;;;9.97;;
42066;SDS011;27734;47.028;28.820;2022-11-10T15:03:52;25.50;;;10.13;;
42066;SDS011;27734;47.028;28.820;2022-11-10T15:06:44;24.90;;;9.57;;
42066;SDS011;27734;47.028;28.820;2022-11-10T15:09:36;23.70;;;9.77;;
42066;SDS011;27734;47.028;28.820;2022-11-10T15:12:42;21.20;;;9.70;;
42066;SDS011;27734;47.028;28.820;2022-11-10T15:15:44;25.47;;;10.20;;
42066;SDS011;27734;47.028;28.820;2022-11-10T15:18:34;21.50;;;10.27;;
42066;SDS011;27734;47.028;28.820;2022-11-10T15:21:28;24.07;;;10.37;;
42066;SDS011;27734;47.028;28.820;2022-11-10T15:24:25;25.97;;;10.73;;
42066;SDS011;27734;47.028;28.820;2022-11-10T15:27:22;28.30;;;11.60;;
42066;SDS011;27734;47.028;28.820;2022-11-10T15:30:20;25.00;;;11.17;;
42066;SDS011;27734;47.028;28.820;2022-11-10T15:33:14;24.90;;;10.70;;
42066;SDS011;27734;47.028;28.820;2022-11-10T15:36:14;28.93;;;12.37;;
42066;SDS011;27734;47.028;28.820;2022-11-10T15:39:16;28.10;;;11.63;;
42066;SDS011;27734;47.028;28.820;2022-11-10T15:42:14;27.63;;;11.50;;
42066;SDS011;27734;47.028;28.820;2022-11-10T15:45:07;30.15;;;12.58;;
42066;SDS011;27734;47.028;28.820;2022-11-10T15:47:59;26.53;;;11.73;;
42066;SDS011;27734;47.028;28.820;2022-11-10T15:50:49;28.73;;;12.50;;
42066;SDS011;27734;47.028;28.820;2022-11-10T15:53:45;29.03;;;12.37;;
42066;SDS011;27734;47.028;28.820;2022-11-10T15:56:36;25.83;;;12.07;;
42066;SDS011;27734;47.028;28.820;2022-11-10T15:59:26;36.60;;;13.83;;
42066;SDS011;27734;47.028;28.820;2022-11-10T16:02:18;33.53;;;14.47;;
42066;SDS011;27734;47.028;28.820;2022-11-10T16:05:10;28.03;;;13.70;;
42066;SDS011;27734;47.028;28.820;2022-11-10T16:08:01;31.70;;;14.83;;
42066;SDS011;27734;47.028;28.820;2022-11-10T16:10:52;29.87;;;14.03;;
42066;SDS011;27734;47.028;28.820;2022-11-10T16:13:44;31.57;;;16.03;;
42066;SDS011;27734;47.028;28.820;2022-11-10T16:16:34;26.20;;;14.87;;
42066;SDS011;27734;47.028;28.820;2022-11-10T16:19:24;34.23;;;15.17;;
42066;SDS011;27734;47.028;28.820;2022-11-10T16:22:14;34.37;;;15.90;;
42066;SDS011;27734;47.028;28.820;2022-11-10T16:25:04;32.73;;;15.63;;
42066;SDS011;27734;47.028;28.820;2022-11-10T16:27:56;32.20;;;16.57;;
42066;SDS011;27734;47.028;28.820;2022-11-10T16:30:48;34.40;;;16.37;;
42066;SDS011;27734;47.028;28.820;2022-11-10T16:33:38;33.27;;;16.70;;
42066;SDS011;27734;47.028;28.820;2022-11-10T16:36:30;33.67;;;16.70;;
42066;SDS011;27734;47.028;28.820;2022-11-10T16:39:21;33.20;;;17.50;;
42066;SDS011;27734;47.028;28.820;2022-11-10T16:42:13;33.65;;;17.90;;
42066;SDS011;27734;47.028;28.820;2022-11-10T16:45:04;34.30;;;17.57;;
42066;SDS011;27734;47.028;28.820;2022-11-10T16:48:00;32.17;;;17.30;;
42066;SDS011;27734;47.028;28.820;2022-11-10T16:50:53;32.87;;;17.37;;
42066;SDS011;27734;47.028;28.820;2022-11-10T16:53:52;35.43;;;19.77;;
42066;SDS011;27734;47.028;28.820;2022-11-10T16:56:42;40.57;;;21.10;;
42066;SDS011;27734;47.028;28.820;2022-11-10T16:59:31;44.27;;;23.70;;
42066;SDS011;27734;47.028;28.820;2022-11-10T17:02:23;47.77;;;24.20;;
42066;SDS011;27734;47.028;28.820;2022-11-10T17:05:19;53.53;;;25.07;;
42066;SDS011;27734;47.028;28.820;2022-11-10T17:08:10;48.50;;;23.67;;
42066;SDS011;27734;47.028;28.820;2022-11-10T17:11:07;45.80;;;22.57;;
42066;SDS011;27734;47.028;28.820;2022-11-10T17:13:57;49.37;;;25.30;;
42066;SDS011;27734;47.028;28.820;2022-11-10T17:16:47;51.33;;;24.40;;
42066;SDS011;27734;47.028;28.820;2022-11-10T17:19:37;53.47;;;25.67;;
42066;SDS011;27734;47.028;28.820;2022-11-10T17:22:27;49.80;;;25.23;;
42066;SDS011;27734;47.028;28.820;2022-11-10T17:25:23;43.87;;;23.47;;
42066;SDS011;27734;47.028;28.820;2022-11-10T17:28:15;43.87;;;22.57;;
42066;SDS011;27734;47.028;28.820;2022-11-10T17:31:05;44.40;;;22.40;;
42066;SDS011;27734;47.028;28.820;2022-11-10T17:33:56;35.47;;;17.37;;
42066;SDS011;27734;47.028;28.820;2022-11-10T17:36:47;34.50;;;17.40;;
42066;SDS011;27734;47.028;28.820;2022-11-10T17:39:38;33.97;;;17.17;;
42066;SDS011;27734;47.028;28.820;2022-11-10T17:42:28;33.97;;;16.50;;
42066;SDS011;27734;47.028;28.820;2022-11-10T17:45:19;28.40;;;14.60;;
42066;SDS011;27734;47.028;28.820;2022-11-10T17:48:10;29.87;;;14.40;;
42066;SDS011;27734;47.028;28.820;2022-11-10T17:51:00;29.03;;;13.97;;
42066;SDS011;27734;47.028;28.820;2022-11-10T17:53:50;27.47;;;13.93;;
42066;SDS011;27734;47.028;28.820;2022-11-10T17:56:40;28.70;;;13.63;;
42066;SDS011;27734;47.028;28.820;2022-11-10T17:59:30;29.83;;;14.67;;
42066;SDS011;27734;47.028;28.820;2022-11-10T18:02:20;30.47;;;14.67;;
42066;SDS011;27734;47.028;28.820;2022-11-10T18:05:10;32.33;;;14.10;;
42066;SDS011;27734;47.028;28.820;2022-11-10T18:08:01;29.33;;;13.80;;
42066;SDS011;27734;47.028;28.820;2022-11-10T18:10:51;29.80;;;15.10;;
42066;SDS011;27734;47.028;28.820;2022-11-10T18:13:41;28.03;;;14.53;;
42066;SDS011;27734;47.028;28.820;2022-11-10T18:16:32;31.77;;;15.20;;
42066;SDS011;27734;47.028;28.820;2022-11-10T18:19:22;28.77;;;15.70;;
42066;SDS011;27734;47.028;28.820;2022-11-10T18:22:11;32.10;;;15.53;;
42066;SDS011;27734;47.028;28.820;2022-11-10T18:25:01;32.00;;;15.80;;
42066;SDS011;27734;47.028;28.820;2022-11-10T18:27:51;29.40;;;13.93;;
42066;SDS011;27734;47.028;28.820;2022-11-10T18:30:41;28.87;;;14.13;;
42066;SDS011;27734;47.028;28.820;2022-11-10T18:33:32;26.60;;;14.13;;
42066;SDS011;27734;47.028;28.820;2022-11-10T18:36:22;30.47;;;13.63;;
42066;SDS011;27734;47.028;28.820;2022-11-10T18:39:12;27.07;;;13.70;;